Currently 71°F in Hemet, California, USA
71°F
73°F / 54°F
3 mph W
0.00"
Monday, November 19, 2018 2:10 PM PST

Hemet, California Weather Summary
Last 36 Hours

Temperature Winds Hourly Humidity Dewpoint
Time Report Norm Report Norm Max Gusts Precip. Rpt. Norm Rpt. Norm Pressure
1Mon 02:10 PM  71.1°F  71°F  3 mph W  1 mph  5 mph  0.00"  17%  30%  22°F  37°F  29.95"
Mon 02:00 PM  72.3°F  71°F  3 mph W  1 mph  6 mph  0.00"  15%  30%  20°F  37°F  29.94"
Mon 01:00 PM  73.2°F  71°F  1 mph N  1 mph  6 mph  0.00"  17%  31%  24°F  37°F  29.95"
2Mon 12:56 PM  73.2°F  71°F  calm  1 mph  6 mph  ----  15%  31%  21°F  37°F  29.95"
Mon 12:00 PM  70.9°F  69°F  2 mph W  1 mph  5 mph  0.00"  17%  33%  22°F  38°F  29.98"
Mon 11:00 AM  65.8°F  67°F  2 mph W  1 mph  3 mph  0.00"  23%  36%  25°F  38°F  30.01"
Mon 10:00 AM  65.1°F  64°F  calm  calm  none  0.00"  25%  41%  27°F  39°F  30.02"
Mon 09:00 AM  63.7°F  62°F  calm  calm  none  0.00"  30%  43%  30°F  39°F  30.03"
Mon 08:00 AM  59.0°F  58°F  calm  calm  none  0.00"  22%  44%  19°F  35°F  30.01"
Mon 07:00 AM  55.9°F  53°F  calm  1 mph  3 mph  0.00"  22%  46%  16°F  32°F  30.01"
Mon 06:00 AM  55.2°F  53°F  calm  1 mph  5 mph  0.00"  22%  47%  15°F  32°F  30.00"
Mon 05:00 AM  54.5°F  53°F  calm  calm  3 mph  0.00"  20%  47%  12°F  33°F  29.99"
3Mon 04:37 AM  54.3°F  53°F  calm  1 mph  2 mph  ----  21%  47%  13°F  33°F  29.99"
Mon 04:00 AM  55.9°F  54°F  2 mph E  1 mph  3 mph  0.00"  21%  46%  15°F  33°F  29.99"
Mon 03:00 AM  56.1°F  54°F  1 mph SE  1 mph  5 mph  0.00"  21%  46%  15°F  33°F  29.98"
Mon 02:00 AM  55.8°F  54°F  1 mph SE  1 mph  5 mph  0.00"  22%  46%  16°F  33°F  30.00"
Mon 01:00 AM  55.4°F  55°F  1 mph E  1 mph  3 mph  0.00"  23%  46%  17°F  34°F  30.01"
Mon 12:00 AM  55.0°F  55°F  1 mph E  1 mph  3 mph  0.00"  22%  46%  15°F  34°F  30.01"
Sun 11:00 PM  56.7°F  56°F  2 mph E  1 mph  6 mph  0.00"  22%  46%  17°F  34°F  30.02"
Sun 10:00 PM  57.9°F  56°F  2 mph SE  1 mph  3 mph  0.00"  22%  46%  18°F  35°F  30.02"
Sun 09:00 PM  58.6°F  57°F  2 mph SE  1 mph  5 mph  0.00"  21%  45%  17°F  35°F  30.01"
Sun 08:00 PM  59.5°F  58°F  1 mph E  1 mph  5 mph  0.00"  20%  44%  17°F  35°F  30.00"
Sun 07:00 PM  60.6°F  59°F  1 mph E  1 mph  8 mph  0.00"  19%  43%  16°F  36°F  29.98"
Sun 06:00 PM  63.3°F  61°F  2 mph SE  1 mph  7 mph  0.00"  19%  41%  19°F  37°F  29.97"
Sun 05:00 PM  66.4°F  65°F  2 mph SE  1 mph  5 mph  0.00"  18%  38%  20°F  37°F  29.96"
Sun 04:00 PM  71.2°F  70°F  1 mph S  1 mph  5 mph  0.00"  17%  33%  22°F  38°F  29.95"
Sun 03:00 PM  76.5°F  71°F  3 mph SW  1 mph  8 mph  0.00"  14%  30%  22°F  38°F  29.95"
Sun 02:00 PM  75.6°F  72°F  3 mph SW  1 mph  8 mph  0.00"  14%  30%  21°F  37°F  29.96"
Sun 01:00 PM  74.5°F  71°F  3 mph W  1 mph  3 mph  0.00"  15%  31%  22°F  37°F  29.96"
Sun 12:00 PM  70.0°F  69°F  1 mph SW  1 mph  3 mph  0.00"  17%  33%  21°F  38°F  29.98"
Sun 11:00 AM  65.8°F  67°F  calm  1 mph  3 mph  0.00"  22%  36%  24°F  38°F  30.01"
Sun 10:00 AM  60.1°F  64°F  calm  calm  1 mph  0.00"  30%  40%  27°F  39°F  30.02"
Sun 09:00 AM  65.1°F  62°F  calm  calm  none  0.00"  22%  43%  24°F  39°F  30.03"
Sun 08:00 AM  54.1°F  58°F  calm  calm  none  0.00"  33%  44%  24°F  36°F  30.05"
Sun 07:00 AM  51.1°F  54°F  calm  1 mph  none  0.00"  32%  46%  21°F  33°F  30.04"
Sun 06:00 AM  52.5°F  53°F  calm  1 mph  none  0.00"  30%  47%  21°F  33°F  30.01"
Sun 05:00 AM  51.4°F  54°F  calm  1 mph  none  0.00"  36%  47%  24°F  33°F  30.01"
Sun 04:00 AM  53.4°F  54°F  calm  1 mph  none  0.00"  29%  46%  21°F  33°F  29.99"
Sun 03:00 AM  52.3°F  54°F  calm  1 mph  none  0.00"  33%  46%  23°F  33°F  30.00"

  1. Current weather data. No green row appears if the current weather data is also the high or low for the current day.
  2. High temperature for the current day.
  3. Low temperature for the current day.

The Hemet weather pages are a service of WeatherCurrents. Hemet, California is located in the San Jacinto Valley, in western Riverside County, at the foot of the San Jacinto mountains.
Copyright ©Mon Nov 19 14:11:43 PST 2018  WeatherCurrents. All rights reserved. - Submit questions and comments - Privacy Policy

This page automatically refreshes every 10 minutes.